x

Frying Pan Shoals, Nc Buoy (41013) Wave Buoy

4:50 - Sun 20th Apr 2014 All times are EDT. -4 hours from GMT.

  • Sig Wave height 10.8ft
  • Swell Direction
  • Peak Period 7s
  • Average Period 6s
  • Wind
    40mph, 49mph gusts
  • Sea Temp 68°f
  • Ar Temp 61°f
  • Sea Pressure 1013mb
  • Frying Pan Shoals, Nc Buoy
  • Frying Pan Shoals, Nc Buoy

More Historic Weather Station data

Upgrade to MSW Pro to gain access to the past 30 days of data for over 8000 Wavebouys and Weather Stations around the globe.

Join Pro

Comparision Forecast

View Surf forecast
   
Dom 04/20 4:50 11ft 7s 6s 40 49 mph 1013mb 68f 61f
3:50 10ft 8s 6s 40 49 mph 1012.9mb 68f 60f
2:50 11ft 8s 6s 40 47 mph 1013.7mb 68f 61f
1:50 10ft 8s 6s 40 49 mph 1013.4mb 69f 60f
12:50 10ft 7s 6s 38 45 mph 1014mb 69f 59f
11:50 10.5ft 7s 6s 34 43 mph 1014.9mb 69f 58f
10:50 10ft 9s 6s 36 45 mph 1014.7mb 69f 59f
9:50 10.5ft 8s 6s 34 43 mph 1014.7mb 69f 59f
8:50 11ft 9s 6s 34 40 mph 1014.2mb 69f 60f
7:50 11.5ft 8s 6s 36 43 mph 1013.8mb 69f 61f
6:50 12ft 7s 6s 38 47 mph 1013.3mb 68f 62f
5:50 12ft 8s 6s 38 47 mph 1012.4mb 68f 62f
4:50 12ft 7s 6s 36 45 mph 1012.5mb 68f 63f
3:50 10.5ft 8s 6s 40 49 mph 1011.6mb 68f 61f
2:50 11ft 8s 6s 40 49 mph 1012.3mb 68f 61f
1:50 11ft 7s 6s 36 45 mph 1013.4mb 68f 62f
12:50 10.5ft 7s 6s 34 43 mph 1013.8mb 68f 61f
Sáb 04/19 11:50 10.5ft 7s 6s 31 40 mph 1014.7mb 68f 62f
10:50 10ft 8s 6s 36 43 mph 1014.3mb 68f 62f
9:50 11ft 8s 6s 36 43 mph 1014.1mb 67f 63f
8:50 12ft 8s 6s 36 43 mph 1013.4mb 67f 63f
7:50 10.5ft 7s 6s 34 45 mph 1013.4mb 66f 62f
6:50 12ft 8s 6s 34 40 mph 1013.3mb 65f 62f
5:50 11ft 7s 6s 34 40 mph 1012.9mb 65f 63f
4:50 10ft 7s 6s 31 40 mph 1012.7mb 65f 63f
3:50 10ft 7s 6s 29 36 mph 1012.7mb 66f 63f
2:50 8ft 6s 5s 31 40 mph 1012.5mb 67f 64f
1:50 8ft 7s 6s 27 31 mph 1013.3mb 67f 65f
12:50 7ft 7s 5s 25 29 mph 1013.4mb 68f 65f
11:50 6.5ft 7s 6s 22 29 mph 1014.2mb 68f 66f
10:50 6ft 7s 6s 13 16 mph 1014.7mb 68f 67f
9:50 7ft 6s 6s 9 11 mph 1014mb 67f 66f
8:50 7ft 6s 6s 7 9 mph 1013.9mb 66f 66f
7:50 8ft 6s 5s 4
mph
1014.3mb 65f 66f
6:50 8ft 7s 6s 9 11 mph 1014.1mb 65f 66f
5:50 7.5ft 6s 6s 4 9 mph 1013.5mb 65f 67f
4:50 9ft 6s 6s 11 20 mph 1013.8mb 65f 68f
3:50 10ft 7s 6s 25 29 mph 1012.9mb 65f 69f
2:50 9ft 7s 6s 22 29 mph 1013.7mb 65f 68f
1:50 9ft 7s 5s 22 38 mph 1015.1mb 65f 64f
12:50 9ft 7s 6s 31 38 mph 1015.9mb 65f 61f
Sex 04/18 11:50 8ft 7s 5s 31 38 mph 1017mb 65f 59f
10:50 8ft 7s 6s 31 38 mph 1017.9mb 65f 59f
9:50 8ft 7s 5s 31 36 mph 1019.2mb 65f 60f
8:50 8.5ft 7s 6s 27 31 mph 1020.1mb 65f 60f
7:50 8.5ft 7s 6s 27 34 mph 1020mb 64f 60f
6:50 8.5ft 7s 6s 29 38 mph 1019.9mb 64f 62f
5:50 8ft 7s 6s 29 34 mph 1020.6mb 64f 62f
4:50 8ft 6s 5s 27 34 mph 1021.2mb 64f 62f
3:50 8ft 6s 5s 27 34 mph 1022mb 64f 61f
2:50 8ft 5s 5s 29 34 mph 1022.9mb 64f 60f
1:50 7.5ft 6s 5s 27 31 mph 1023.9mb 64f 59f
12:50 6.5ft 7s 5s 25 29 mph 1024.8mb 64f 59f
11:50 7ft 6s 5s 25 31 mph 1025.2mb 64f 58f
10:50 7ft 6s 5s 25 29 mph 1025.7mb 64f 58f
9:50 8ft 7s 6s 22 27 mph 1025.7mb 64f 57f
8:50 7ft 6s 5s 27 29 mph 1025.4mb 64f 57f
7:50  -   -   -  27 31 mph 1025.3mb 64f 57f
6:50 7.5ft 7s 5s 27 31 mph 1025mb 64f 57f
5:50 8ft 7s 5s 27 34 mph 1024.8mb 64f 57f
4:50 8ft 9s 6s 27 31 mph 1025.3mb 64f 57f
3:50 8ft 6s 5s 25 31 mph 1025.4mb 63f 58f
2:50 8ft 9s 6s 22 29 mph 1026.4mb 64f 58f
1:50 8ft 7s 6s 25 29 mph 1026.2mb 64f 58f
12:50 8ft 6s 6s 25 31 mph 1027mb 64f 59f
Qui 04/17 11:50 7.5ft 8s 6s 27 31 mph 1027.5mb 64f 59f
10:50 8ft 8s 6s 25 29 mph 1027.9mb 64f 60f
9:50 8.5ft 7s 6s 27 31 mph 1027.9mb 64f 60f
8:50 8.5ft 7s 6s 25 31 mph 1027.9mb 64f 60f
7:50 8.5ft 8s 6s 25 29 mph 1027.6mb 63f 61f
6:50 8ft 7s 5s 25 29 mph 1027mb 62f 61f
5:50 7.5ft 8s 6s 25 29 mph 1028.2mb 62f 61f
4:50 7.5ft 8s 5s 25 29 mph 1028.3mb 62f 60f
3:50 7.5ft 7s 5s 25 29 mph 1028.8mb 62f 60f
2:50 7.5ft 7s 5s 25 31 mph 1029.3mb 62f 59f
1:50 8ft 7s 6s 25 31 mph 1029.5mb 63f 59f
12:50 7ft 6s 5s 25 29 mph 1029.7mb 63f 58f
11:50 8ft 7s 5s 25 29 mph 1029.8mb 63f 58f
10:50 7.5ft 7s 5s 27 31 mph 1029.6mb 63f 57f
9:50 9ft 7s 6s 27 31 mph 1028.9mb 63f 56f
8:50 8.5ft 7s 6s 27 31 mph 1028.4mb 62f 56f
7:50 8ft 7s 5s 27 31 mph 1027.7mb 62f 55f
6:50 7.5ft 6s 5s 27 34 mph 1027mb 62f 54f
5:50 7ft 6s 5s 27 31 mph 1027.1mb 62f 54f
4:50 7ft 6s 5s 27 31 mph 1026.5mb 62f 54f
3:50 7.5ft 7s 5s 27 36 mph 1026.6mb 62f 53f
2:50 7.5ft 6s 5s 27 31 mph 1026.9mb 62f 53f
1:50 8ft 6s 5s 27 31 mph 1027.2mb 64f 53f
12:50 8ft 7s 5s 27 31 mph 1027.5mb 64f 53f
Qua 04/16 11:50 8ft 7s 5s 27 34 mph 1027.5mb 65f 53f
10:50 8.5ft 7s 6s 29 36 mph 1027.3mb 65f 53f
9:50 8.5ft 7s 6s 29 36 mph 1027.3mb 65f 52f